Time;durP1;ratioP1;P1;durP2;ratioP2;P2;SDS_P1;SDS_P2;PMS_P1;PMS_P2;Temp;Humidity;BMP_temperature;BMP_pressure;BME280_temperature;BME280_humidity;BME280_pressure;Samples;Min_cycle;Max_cycle;Signal;HPM_P1;HPM_P2
2022/10/06 00:00:49;;;;;;;1999.90;999.90;;;14.90;99.90;;;;;;5019321;28;20045;-83
2022/10/06 00:03:16;;;;;;;1999.90;999.90;;;15.10;99.90;;;;;;5068959;28;20048;-84
2022/10/06 00:05:43;;;;;;;1999.90;999.90;;;14.90;99.90;;;;;;5053265;28;20572;-85
2022/10/06 00:08:10;;;;;;;1999.90;999.90;;;15.00;99.90;;;;;;5052729;28;20049;-85
2022/10/06 00:10:35;;;;;;;1999.90;999.90;;;14.80;99.90;;;;;;5035630;28;20064;-85
2022/10/06 00:13:01;;;;;;;1999.90;999.90;;;15.00;33.20;;;;;;5068274;28;20063;-85
2022/10/06 00:15:30;;;;;;;1999.90;999.90;;;14.60;1.00;;;;;;5068439;28;20056;-84
2022/10/06 00:17:56;;;;;;;1999.90;999.90;;;15.30;1.00;;;;;;5086448;28;20052;-81
2022/10/06 00:20:24;;;;;;;1999.90;999.90;;;14.30;99.90;;;;;;5035109;28;20052;-83
2022/10/06 00:22:50;;;;;;;1999.90;999.90;;;14.70;99.90;;;;;;5035697;28;20048;-82
2022/10/06 00:25:19;;;;;;;1999.90;999.90;;;15.00;99.90;;;;;;5035914;28;20498;-83
2022/10/06 00:27:46;;;;;;;1999.90;999.90;;;14.80;99.90;;;;;;5052902;28;20487;-82
2022/10/06 00:30:14;;;;;;;1999.90;999.90;;;14.40;38.50;;;;;;5053175;28;20110;-81
2022/10/06 00:32:40;;;;;;;1999.90;999.90;;;14.90;1.00;;;;;;5052312;28;20061;-82
2022/10/06 00:35:07;;;;;;;1999.90;999.90;;;14.80;99.90;;;;;;5068795;28;20048;-82
2022/10/06 00:37:34;;;;;;;1999.90;999.90;;;14.90;99.90;;;;;;5018579;28;20045;-81
2022/10/06 00:40:00;;;;;;;;;;;14.80;99.90;;;;;;5035112;28;20048;-82
2022/10/06 00:42:27;;;;;;;1999.90;999.90;;;14.80;99.90;;;;;;5068275;28;19925;-81
2022/10/06 00:44:53;;;;;;;1999.90;999.90;;;14.70;5.80;;;;;;5035320;28;20489;-81
2022/10/06 00:47:22;;;;;;;1999.90;999.90;;;14.70;1.00;;;;;;5067607;28;20477;-85
2022/10/06 00:49:48;;;;;;;1999.90;999.90;;;14.30;99.90;;;;;;5035036;28;20048;-83
2022/10/06 00:52:17;;;;;;;1999.90;999.90;;;14.50;99.90;;;;;;5034990;28;20048;-82
2022/10/06 00:54:43;;;;;;;1999.90;999.90;;;14.60;99.90;;;;;;5051996;28;20509;-81
2022/10/06 00:57:10;;;;;;;1999.90;999.90;;;14.50;9.30;;;;;;5050877;28;20048;-82
2022/10/06 00:59:37;;;;;;;1999.90;999.90;;;14.60;78.10;;;;;;5034422;28;20057;-82
2022/10/06 01:02:16;;;;;;;1999.90;999.90;;;14.20;99.90;;;;;;5067388;28;20516;-83
2022/10/06 01:04:50;;;;;;;1999.90;999.90;;;14.50;99.90;;;;;;5068193;28;20052;-82
2022/10/06 01:07:18;;;;;;;1999.90;999.90;;;14.10;99.90;;;;;;5051693;28;20049;-82
2022/10/06 01:09:44;;;;;;;1999.90;999.90;;;14.20;99.90;;;;;;5068085;28;20146;-82
2022/10/06 01:12:09;;;;;;;1999.90;999.90;;;14.40;1.00;;;;;;5017373;28;20052;-82
2022/10/06 01:14:38;;;;;;;1999.90;999.90;;;14.30;99.90;;;;;;5034766;28;20064;-82
2022/10/06 01:17:31;;;;;;;1999.90;999.90;;;14.30;96.30;;;;;;5034717;28;20045;-82
2022/10/06 01:20:10;;;;;;;1999.90;999.90;;;14.10;1.00;;;;;;5050845;28;20080;-81
2022/10/06 01:22:42;;;;;;;1999.90;999.90;;;15.00;99.90;;;;;;5052068;28;20041;-81
2022/10/06 01:25:10;;;;;;;1999.90;999.90;;;14.10;99.90;;;;;;5033461;28;20508;-82
2022/10/06 01:27:39;;;;;;;1999.90;999.90;;;14.10;99.90;;;;;;5049425;28;20106;-82
2022/10/06 01:30:12;;;;;;;1999.90;999.90;;;14.00;99.90;;;;;;5034836;28;20064;-82
2022/10/06 01:32:38;;;;;;;1999.90;999.90;;;14.00;99.90;;;;;;5051397;28;20428;-82
2022/10/06 01:35:07;;;;;;;1999.90;999.90;;;13.90;99.90;;;;;;5052106;28;20053;-82
2022/10/06 01:37:33;;;;;;;1999.90;999.90;;;13.90;99.90;;;;;;5034135;28;20393;-81
2022/10/06 01:39:59;;;;;;;1999.90;999.90;;;14.00;99.90;;;;;;5051751;28;20060;-82
2022/10/06 01:42:24;;;;;;;1999.90;999.90;;;13.70;99.90;;;;;;5066976;28;20052;-81
2022/10/06 01:44:50;;;;;;;1999.90;999.90;;;13.90;99.90;;;;;;5050640;28;20741;-82
2022/10/06 01:47:16;;;;;;;1999.90;999.90;;;;;;;;;;5034607;28;20059;-83
2022/10/06 01:49:42;;;;;;;1999.90;999.90;;;13.90;1.00;;;;;;5051894;28;20102;-82
2022/10/06 01:52:08;;;;;;;1999.90;999.90;;;13.90;99.90;;;;;;5034188;28;20053;-83
2022/10/06 01:54:34;;;;;;;1999.90;999.90;;;13.80;1.00;;;;;;5033992;28;20079;-83
2022/10/06 01:57:00;;;;;;;1999.90;999.90;;;13.60;1.00;;;;;;5051396;28;20132;-83
2022/10/06 01:59:25;;;;;;;1999.90;999.90;;;13.80;99.90;;;;;;5067830;28;20087;-82
2022/10/06 02:01:51;;;;;;;1999.90;999.90;;;13.80;99.90;;;;;;5067163;28;20053;-82
2022/10/06 02:04:17;;;;;;;1999.90;999.90;;;13.70;99.90;;;;;;5050228;28;20037;-84
2022/10/06 02:06:42;;;;;;;1999.90;999.90;;;13.80;99.90;;;;;;5051071;28;20041;-83
2022/10/06 02:09:08;;;;;;;1999.90;999.90;;;13.80;12.20;;;;;;5051385;28;20041;-83
2022/10/06 02:11:35;;;;;;;1999.90;999.90;;;13.70;14.00;;;;;;5066368;28;20176;-82
2022/10/06 02:14:01;;;;;;;1999.90;999.90;;;13.70;80.70;;;;;;4997394;28;20054;-83
2022/10/06 02:16:28;;;;;;;1999.90;999.90;;;13.70;4.70;;;;;;5010651;28;20072;-84
2022/10/06 02:18:54;;;;;;;1999.90;999.90;;;13.60;95.80;;;;;;5012130;28;20058;-84
2022/10/06 02:21:21;;;;;;;1999.90;999.90;;;13.50;83.00;;;;;;5011673;28;20054;-83
2022/10/06 02:23:47;;;;;;;1999.90;999.90;;;14.90;1.00;;;;;;5011040;28;20505;-83
2022/10/06 02:26:18;;;;;;;1999.90;999.90;;;13.70;99.90;;;;;;5011668;28;20125;-86
2022/10/06 02:28:45;;;;;;;1999.90;999.90;;;13.50;99.90;;;;;;5011498;28;20089;-83
2022/10/06 02:31:12;;;;;;;1999.90;999.90;;;13.60;99.90;;;;;;5011068;28;20053;-84
2022/10/06 02:33:39;;;;;;;1999.90;999.90;;;13.70;99.90;;;;;;5010303;28;20053;-85
2022/10/06 02:36:06;;;;;;;1999.90;999.90;;;13.80;99.90;;;;;;5011848;28;20480;-84
2022/10/06 02:38:33;;;;;;;1999.90;999.90;;;13.60;99.90;;;;;;5009939;28;20053;-83
2022/10/06 02:41:00;;;;;;;1999.90;999.90;;;13.80;99.90;;;;;;5011150;28;20085;-83
2022/10/06 02:43:28;;;;;;;1999.90;999.90;;;13.50;99.90;;;;;;5011939;28;20041;-84
2022/10/06 02:45:54;;;;;;;;;;;13.60;99.90;;;;;;5012249;28;20486;-84
2022/10/06 02:48:23;;;;;;;1999.90;999.90;;;13.50;99.90;;;;;;5011679;28;20389;-83
2022/10/06 02:50:54;;;;;;;1999.90;999.90;;;13.50;99.90;;;;;;5026338;28;20058;-84
2022/10/06 02:53:20;;;;;;;1999.90;999.90;;;13.60;99.90;;;;;;5011020;28;20042;-83
2022/10/06 02:55:46;;;;;;;1999.90;999.90;;;13.50;99.90;;;;;;5013796;28;20459;-83
2022/10/06 02:58:11;;;;;;;1999.90;999.90;;;13.30;99.90;;;;;;5013179;28;20042;-83
2022/10/06 03:00:37;;;;;;;1999.90;999.90;;;13.40;99.90;;;;;;5014835;28;20128;-87
2022/10/06 03:03:03;;;;;;;1999.90;999.90;;;13.20;99.90;;;;;;5013556;28;20042;-83
2022/10/06 03:05:29;;;;;;;1999.90;999.90;;;13.20;99.90;;;;;;5015323;28;20058;-84
2022/10/06 03:07:55;;;;;;;1999.90;999.90;;;13.10;99.90;;;;;;5013074;28;20502;-84
2022/10/06 03:10:20;;;;;;;1999.90;999.90;;;13.30;1.00;;;;;;5015117;28;20080;-86
2022/10/06 03:12:46;;;;;;;1999.90;999.90;;;13.10;1.00;;;;;;5027994;28;20053;-84
2022/10/06 03:15:12;;;;;;;1999.90;999.90;;;13.10;1.00;;;;;;5054696;28;20135;-83
2022/10/06 03:17:38;;;;;;;1999.90;999.90;;;13.10;1.00;;;;;;5037044;28;20052;-83
2022/10/06 03:20:04;;;;;;;1999.90;999.90;;;13.00;1.00;;;;;;5053875;28;20486;-83
2022/10/06 03:22:29;;;;;;;1999.90;999.90;;;13.10;1.00;;;;;;5070621;28;20049;-83
2022/10/06 03:24:55;;;;;;;1999.90;999.90;;;13.20;1.00;;;;;;5070107;28;20362;-83
2022/10/06 03:27:21;;;;;;;1999.90;999.90;;;13.10;1.00;;;;;;5053438;28;20500;-83
2022/10/06 03:29:46;;;;;;;1999.90;999.90;;;13.10;1.00;;;;;;5053819;28;20487;-84
2022/10/06 03:32:12;;;;;;;1999.90;999.90;;;13.10;99.90;;;;;;5052830;28;20123;-83
2022/10/06 03:34:38;;;;;;;1999.90;999.90;;;13.00;99.90;;;;;;5069540;28;20085;-84
2022/10/06 03:37:03;;;;;;;1999.90;999.90;;;13.60;99.90;;;;;;5069337;28;20045;-83
2022/10/06 03:39:29;;;;;;;1999.90;999.90;;;13.00;99.90;;;;;;5069379;28;20087;-83
2022/10/06 03:41:55;;;;;;;1999.90;999.90;;;13.00;99.90;;;;;;5052945;28;20071;-87
2022/10/06 03:44:21;;;;;;;1999.90;999.90;;;13.00;99.90;;;;;;5053652;28;20049;-83
2022/10/06 03:46:47;;;;;;;1999.90;999.90;;;13.00;99.90;;;;;;5053725;28;20052;-83
2022/10/06 03:49:13;;;;;;;1999.90;999.90;;;13.00;99.90;;;;;;5036301;28;20048;-83
2022/10/06 03:51:40;;;;;;;1999.90;999.90;;;13.00;99.90;;;;;;5069508;28;20501;-85
2022/10/06 03:54:09;;;;;;;1999.90;999.90;;;13.10;99.90;;;;;;5053742;28;20041;-83
2022/10/06 03:56:37;;;;;;;1999.90;999.90;;;13.00;99.90;;;;;;5035375;28;20140;-83
2022/10/06 03:59:16;;;;;;;1999.90;999.90;;;13.00;99.90;;;;;;5036606;28;20045;-84
2022/10/06 04:01:44;;;;;;;1999.90;999.90;;;13.70;99.90;;;;;;5053939;28;20112;-84
2022/10/06 04:04:10;;;;;;;1999.90;999.90;;;13.00;99.90;;;;;;5036503;28;20161;-84
2022/10/06 04:06:38;;;;;;;1999.90;999.90;;;12.90;99.90;;;;;;5035269;28;20053;-83
2022/10/06 04:09:06;;;;;;;1999.90;999.90;;;13.00;99.90;;;;;;5053519;28;20056;-83
2022/10/06 04:11:34;;;;;;;1999.90;999.90;;;14.50;99.90;;;;;;5053526;28;20041;-81
2022/10/06 04:14:02;;;;;;;1999.90;999.90;;;12.80;99.90;;;;;;5055771;28;20060;-82
2022/10/06 04:16:33;;;;;;;1999.90;999.90;;;12.90;99.90;;;;;;5071784;28;20135;-82
2022/10/06 04:19:00;;;;;;;1999.90;999.90;;;12.90;99.90;;;;;;5055473;28;20504;-85
2022/10/06 04:21:28;;;;;;;1999.90;999.90;;;13.10;99.90;;;;;;5057423;28;20495;-82
2022/10/06 04:23:59;;;;;;;1999.90;999.90;;;13.00;99.90;;;;;;5054848;28;20423;-83
2022/10/06 04:26:29;;;;;;;1999.90;999.90;;;13.10;99.90;;;;;;5054632;28;20056;-83
2022/10/06 04:28:55;;;;;;;1999.90;999.90;;;13.00;99.90;;;;;;5055237;28;20127;-84
2022/10/06 04:31:27;;;;;;;1999.90;999.90;;;12.90;99.90;;;;;;5037813;28;20527;-83
2022/10/06 04:33:55;;;;;;;1999.90;999.90;;;12.90;99.90;;;;;;5037891;28;20092;-84
2022/10/06 04:36:26;;;;;;;1999.90;999.90;;;12.80;99.90;;;;;;5056880;28;20358;-83
2022/10/06 04:38:55;;;;;;;1999.90;999.90;;;12.80;99.90;;;;;;5054521;28;20389;-84
2022/10/06 04:41:22;;;;;;;1999.90;999.90;;;13.60;99.90;;;;;;5053385;28;20045;-84
2022/10/06 04:43:50;;;;;;;1999.90;999.90;;;12.90;99.90;;;;;;5053960;28;20041;-84
2022/10/06 04:46:17;;;;;;;1999.90;999.90;;;12.80;99.90;;;;;;5034823;28;20048;-85
2022/10/06 04:48:43;;;;;;;1999.90;999.90;;;12.90;99.90;;;;;;5035993;28;20500;-83
2022/10/06 04:51:15;;;;;;;1999.90;999.90;;;12.90;99.90;;;;;;5034736;28;20284;-84
2022/10/06 04:53:43;;;;;;;1999.90;999.90;;;12.90;99.90;;;;;;5051616;28;20052;-83
2022/10/06 04:56:12;;;;;;;;;;;12.90;99.90;;;;;;5034662;28;20127;-83
2022/10/06 04:58:44;;;;;;;1999.90;999.90;;;12.80;99.90;;;;;;5051977;28;20438;-83
2022/10/06 05:01:21;;;;;;;1999.90;999.90;;;12.90;99.90;;;;;;5034749;28;20036;-83
2022/10/06 05:03:49;;;;;;;1999.90;999.90;;;14.10;99.90;;;;;;5052917;28;20037;-83
2022/10/06 05:06:38;;;;;;;;;;;12.90;99.90;;;;;;5053576;28;20045;-84
2022/10/06 05:09:13;;;;;;;1999.90;999.90;;;12.90;99.90;;;;;;5046988;28;20007;-83
2022/10/06 05:11:39;;;;;;;1999.90;999.90;;;12.80;99.90;;;;;;5034724;28;20192;-82
2022/10/06 05:14:05;;;;;;;1999.90;999.90;;;12.80;99.90;;;;;;5052441;28;20469;-83
2022/10/06 05:16:31;;;;;;;1999.90;999.90;;;12.80;99.90;;;;;;5051954;28;20392;-84
2022/10/06 05:18:57;;;;;;;1999.90;999.90;;;13.10;99.90;;;;;;5052316;28;20047;-88
2022/10/06 05:21:26;;;;;;;1999.90;999.90;;;13.00;99.90;;;;;;5053001;28;20045;-85
2022/10/06 05:23:52;;;;;;;1999.90;999.90;;;12.90;99.90;;;;;;5034522;28;20036;-84
2022/10/06 05:26:23;;;;;;;1999.90;999.90;;;12.90;99.90;;;;;;5050385;28;20047;-87
2022/10/06 05:28:49;;;;;;;1999.90;999.90;;;13.00;99.90;;;;;;5068758;28;20477;-84
2022/10/06 05:31:17;;;;;;;1999.90;999.90;;;13.00;99.90;;;;;;5034705;28;20036;-86
2022/10/06 05:33:43;;;;;;;1999.90;999.90;;;13.00;99.90;;;;;;5052442;28;20035;-84
2022/10/06 05:36:17;;;;;;;1999.90;999.90;;;13.10;99.90;;;;;;5052274;28;20041;-84
2022/10/06 05:38:44;;;;;;;1999.90;999.90;;;12.30;99.90;;;;;;5052449;28;20115;-84
2022/10/06 05:41:18;;;;;;;1999.90;999.90;;;13.70;99.90;;;;;;5051068;28;20048;-84
2022/10/06 05:43:44;;;;;;;1999.90;999.90;;;12.90;99.90;;;;;;5052487;28;20037;-83
2022/10/06 05:46:18;;;;;;;1999.90;999.90;;;12.90;99.90;;;;;;5068305;28;20047;-84
2022/10/06 05:48:50;;;;;;;1999.90;999.90;;;13.00;99.90;;;;;;5034809;28;20135;-82
2022/10/06 05:51:18;;;;;;;1999.90;999.90;;;12.90;99.90;;;;;;5034847;28;20048;-87
2022/10/06 05:53:43;;;;;;;;;;;13.00;99.90;;;;;;5052165;28;20123;-84
2022/10/06 05:56:12;;;;;;;1999.90;999.90;;;12.90;99.90;;;;;;5052309;28;20349;-84
2022/10/06 05:58:39;;;;;;;1999.90;999.90;;;13.10;99.90;;;;;;5051883;28;20041;-83
2022/10/06 06:01:23;;;;;;;1999.90;999.90;;;13.00;99.90;;;;;;5034572;28;20431;-83
2022/10/06 06:04:03;;;;;;;1999.90;999.90;;;13.00;99.90;;;;;;5052529;28;20124;-84
2022/10/06 06:06:38;;;;;;;1999.90;999.90;;;13.10;99.90;;;;;;5052465;28;20069;-84
2022/10/06 06:09:07;;;;;;;1999.90;999.90;;;13.20;99.90;;;;;;5034077;28;20551;-85
2022/10/06 06:11:35;;;;;;;1999.90;999.90;;;13.20;94.80;;;;;;5050810;28;20107;-84
2022/10/06 06:14:05;;;;;;;1999.90;999.90;;;13.50;57.70;;;;;;5052169;28;20401;-83
2022/10/06 06:16:31;;;;;;;1999.90;999.90;;;13.20;1.50;;;;;;5034773;28;20044;-84
2022/10/06 06:18:58;;;;;;;1999.90;999.90;;;13.20;7.80;;;;;;5067167;28;20045;-85
2022/10/06 06:21:25;;;;;;;1999.90;999.90;;;13.20;67.40;;;;;;5052109;28;20089;-85
2022/10/06 06:23:51;;;;;;;1999.90;999.90;;;13.20;60.40;;;;;;5067432;28;20124;-83
2022/10/06 06:26:28;;;;;;;1999.90;999.90;;;13.30;66.40;;;;;;5051392;28;20083;-87
2022/10/06 06:29:01;;;;;;;1999.90;999.90;;;13.40;94.80;;;;;;5067798;28;20053;-84
2022/10/06 06:31:30;;;;;;;1999.90;999.90;;;13.40;81.80;;;;;;5071218;28;20489;-83
2022/10/06 06:33:58;;;;;;;1999.90;999.90;;;13.40;42.80;;;;;;5056316;28;20109;-83
2022/10/06 06:36:30;;;;;;;1999.90;999.90;;;13.40;32.70;;;;;;5071596;28;20076;-83
2022/10/06 06:38:57;;;;;;;1999.90;999.90;;;13.60;1.00;;;;;;5058365;28;20124;-84
2022/10/06 06:41:31;;;;;;;1999.90;999.90;;;13.60;1.00;;;;;;5057419;28;20405;-82
2022/10/06 06:43:58;;;;;;;1999.90;999.90;;;13.60;1.00;;;;;;5056402;28;20045;-84
2022/10/06 06:46:26;;;;;;;1999.90;999.90;;;12.80;1.00;;;;;;5051251;28;20060;-83
2022/10/06 06:48:54;;;;;;;;;;;13.60;1.00;;;;;;5055621;28;20187;-86
2022/10/06 06:51:23;;;;;;;1999.90;999.90;;;13.10;1.00;;;;;;5054810;28;19927;-83
2022/10/06 06:53:50;;;;;;;1999.90;999.90;;;13.60;1.00;;;;;;5020689;28;20382;-83
2022/10/06 06:56:16;;;;;;;1999.90;999.90;;;13.60;1.00;;;;;;5054334;28;20123;-87
2022/10/06 06:58:49;;;;;;;1999.90;999.90;;;13.70;1.00;;;;;;5054640;28;20049;-87
2022/10/06 07:01:20;;;;;;;1999.90;999.90;;;13.70;1.00;;;;;;5053039;28;20048;-83
2022/10/06 07:03:51;;;;;;;1999.90;999.90;;;13.80;1.00;;;;;;5071186;28;20157;-84
2022/10/06 07:06:17;;;;;;;1999.90;999.90;;;13.70;1.00;;;;;;5054289;28;20394;-83
2022/10/06 07:08:45;;;;;;;1999.90;999.90;;;14.10;1.00;;;;;;5055482;28;20532;-83
2022/10/06 07:11:32;;;;;;;1999.90;999.90;;;13.80;1.00;;;;;;5070532;28;20052;-90
2022/10/06 07:14:00;;;;;;;1999.90;999.90;;;13.90;1.00;;;;;;5054229;28;20049;-83
2022/10/06 07:25:06;;;;;;;1999.90;999.90;;;14.00;1.00;;;;;;5070630;28;20140;-83
2022/10/06 07:27:49;;;;;;;1999.90;999.90;;;14.10;1.00;;;;;;5070038;28;20060;-82
2022/10/06 07:30:18;;;;;;;1999.90;999.90;;;14.10;1.00;;;;;;5053488;28;20389;-83
2022/10/06 07:32:44;;;;;;;1999.90;999.90;;;14.20;99.90;;;;;;5054737;28;20103;-83
2022/10/06 07:35:11;;;;;;;1999.90;999.90;;;14.20;99.90;;;;;;5037186;28;20045;-84
2022/10/06 07:37:37;;;;;;;1999.90;999.90;;;14.20;99.90;;;;;;5020116;28;20129;-84
2022/10/06 07:40:05;;;;;;;1999.90;999.90;;;14.30;99.90;;;;;;5054884;28;20483;-82
2022/10/06 07:42:46;;;;;;;1999.90;999.90;;;;;;;;;;5069043;28;20056;-84
2022/10/06 07:45:39;;;;;;;1999.90;999.90;;;14.40;99.90;;;;;;5054886;28;20129;-83
2022/10/06 07:48:13;;;;;;;1999.90;999.90;;;14.40;99.90;;;;;;5053499;28;20052;-82
2022/10/06 07:50:40;;;;;;;1999.90;999.90;;;14.60;99.90;;;;;;5054226;28;20114;-83
2022/10/06 07:53:08;;;;;;;1999.90;999.90;;;14.70;99.90;;;;;;5053932;28;20436;-85
2022/10/06 07:55:39;;;;;;;1999.90;999.90;;;14.70;99.90;;;;;;5052928;28;20053;-84
2022/10/06 07:58:17;;;;;;;1999.90;999.90;;;14.90;99.90;;;;;;5051596;28;20107;-84
2022/10/06 08:00:44;;;;;;;1999.90;999.90;;;16.60;99.90;;;;;;5069654;28;20055;-85
2022/10/06 08:03:13;;;;;;;1999.90;999.90;;;16.60;99.90;;;;;;5036804;28;20291;-84
2022/10/06 08:05:39;;;;;;;1999.90;999.90;;;17.70;79.30;;;;;;5069706;28;20044;-85
2022/10/06 08:08:05;;;;;;;1999.90;999.90;;;18.00;1.00;;;;;;5070109;28;20044;-83
2022/10/06 08:10:31;;;;;;;1999.90;999.90;;;18.90;1.00;;;;;;5053925;28;20052;-84
2022/10/06 08:12:56;;;;;;;1999.90;999.90;;;19.00;99.90;;;;;;5069198;28;20052;-84
2022/10/06 08:15:22;;;;;;;1999.90;999.90;;;18.60;99.90;;;;;;5035794;28;20079;-83
2022/10/06 08:17:48;;;;;;;1999.90;999.90;;;18.20;99.90;;;;;;5069846;28;20489;-84
2022/10/06 08:20:15;;;;;;;1999.90;999.90;;;18.30;99.90;;;;;;5069935;28;20044;-84
2022/10/06 08:22:41;;;;;;;1999.90;999.90;;;18.50;99.90;;;;;;5053721;28;20508;-84
2022/10/06 08:25:08;;;;;;;1999.90;999.90;;;18.70;99.90;;;;;;5069617;28;20041;-83
2022/10/06 08:27:36;;;;;;;1999.90;999.90;;;18.80;99.90;;;;;;5053142;28;20095;-84
2022/10/06 08:30:04;;;;;;;1999.90;999.90;;;19.00;99.90;;;;;;5036484;28;20056;-84
2022/10/06 08:32:31;;;;;;;1999.90;999.90;;;19.60;99.90;;;;;;5052707;28;20136;-84
2022/10/06 08:34:57;;;;;;;1999.90;999.90;;;20.40;99.90;;;;;;5036044;28;20092;-84
2022/10/06 08:37:25;;;;;;;1999.90;999.90;;;20.50;99.90;;;;;;5068992;28;20048;-83
2022/10/06 08:39:51;;;;;;;1999.90;999.90;;;20.50;99.90;;;;;;5053900;28;20049;-84
2022/10/06 08:42:30;;;;;;;1999.90;999.90;;;20.90;99.90;;;;;;5035775;28;20088;-84
2022/10/06 08:45:05;;;;;;;1999.90;999.90;;;21.30;99.90;;;;;;5036094;28;20088;-84
2022/10/06 08:47:35;;;;;;;1999.90;999.90;;;22.00;99.90;;;;;;5069022;28;20060;-84
2022/10/06 08:50:04;;;;;;;1999.90;999.90;;;22.40;99.90;;;;;;5035454;28;20144;-84
2022/10/06 08:52:55;;;;;;;1999.90;999.90;;;22.20;99.90;;;;;;5035013;28;20053;-84
2022/10/06 08:55:38;;;;;;;1999.90;999.90;;;23.00;99.90;;;;;;5069228;28;20053;-85
2022/10/06 08:58:29;;;;;;;1999.90;999.90;;;22.90;99.90;;;;;;5035744;28;20132;-84
2022/10/06 09:01:17;;;;;;;1999.90;999.90;;;23.70;99.90;;;;;;5053572;28;20489;-84
2022/10/06 09:03:48;;;;;;;1999.90;999.90;;;23.80;99.90;;;;;;5068593;28;20037;-84
2022/10/06 09:06:22;;;;;;;1999.90;999.90;;;22.80;99.90;;;;;;5068669;28;20060;-86
2022/10/06 09:09:10;;;;;;;1999.90;999.90;;;22.60;99.90;;;;;;5068579;28;20194;-84
2022/10/06 09:11:48;;;;;;;1999.90;996.72;;;22.60;99.90;;;;;;5068297;28;20382;-85
2022/10/06 09:14:38;;;;;;;1999.90;946.97;;;22.80;99.90;;;;;;5068085;28;20063;-84
2022/10/06 09:17:13;;;;;;;1999.90;792.25;;;21.30;99.90;;;;;;5068218;28;20049;-84
2022/10/06 09:19:46;;;;;;;1999.90;999.90;;;21.70;99.90;;;;;;5035072;28;20388;-84
2022/10/06 09:22:20;;;;;;;1999.90;999.90;;;21.70;99.90;;;;;;5052018;28;20067;-85
2022/10/06 09:24:50;;;;;;;1999.90;999.90;;;20.20;99.90;;;;;;5068495;28;20063;-85
2022/10/06 09:27:20;;;;;;;1999.90;999.90;;;21.10;99.90;;;;;;5067744;28;20045;-84
2022/10/06 09:29:47;;;;;;;1999.90;869.72;;;20.70;99.90;;;;;;5067924;28;20057;-84
2022/10/06 09:32:14;;;;;;;1999.90;999.70;;;20.20;99.90;;;;;;5051558;28;20048;-85
2022/10/06 09:34:54;;;;;;;1999.90;867.78;;;20.50;99.90;;;;;;5084641;28;20052;-85
2022/10/06 09:37:19;;;;;;;1999.90;999.90;;;20.70;99.90;;;;;;5018245;28;20385;-84
2022/10/06 09:39:49;;;;;;;1999.90;478.05;;;21.40;99.90;;;;;;5067851;28;20045;-85
2022/10/06 09:42:33;;;;;;;1956.10;949.63;;;22.00;99.90;;;;;;5068188;28;20370;-85
2022/10/06 09:45:22;;;;;;;1999.90;999.90;;;21.00;99.90;;;;;;5018607;28;20462;-85
2022/10/06 09:47:49;;;;;;;1999.90;999.90;;;20.00;99.90;;;;;;5035017;28;20397;-86
2022/10/06 09:50:26;;;;;;;1999.90;846.60;;;20.30;99.90;;;;;;5068455;28;20088;-85
2022/10/06 09:53:10;;;;;;;1999.90;830.75;;;19.20;99.90;;;;;;5052515;28;20092;-84
2022/10/06 09:55:35;;;;;;;1999.90;839.97;;;18.40;99.90;;;;;;5034608;28;20127;-85
2022/10/06 09:58:14;;;;;;;1999.90;999.90;;;18.50;99.90;;;;;;5067829;28;20133;-84
2022/10/06 10:00:56;;;;;;;1999.90;999.90;;;18.00;99.90;;;;;;5035039;28;20106;-84
2022/10/06 10:03:30;;;;;;;1999.90;999.90;;;17.70;99.90;;;;;;5051610;28;20389;-86
2022/10/06 10:05:55;;;;;;;1999.90;999.90;;;17.80;99.90;;;;;;5037971;28;20124;-85
2022/10/06 10:08:29;;;;;;;1999.90;999.90;;;16.40;99.90;;;;;;5038825;28;20099;-85
2022/10/06 10:12:23;;;;;;;1999.90;999.90;;;17.80;99.90;;;;;;5038976;28;20063;-84
2022/10/06 10:13:57;;;;;;;1999.90;999.90;;;17.90;99.90;;;;;;5038208;28;20053;-84
2022/10/06 10:16:34;;;;;;;1999.90;999.90;;;18.00;99.90;;;;;;5071371;28;20488;-85
2022/10/06 10:19:03;;;;;;;1999.90;999.90;;;17.50;99.90;;;;;;5038539;28;20052;-85
2022/10/06 10:21:34;;;;;;;1999.90;999.90;;;18.20;99.90;;;;;;5056086;28;20208;-83
2022/10/06 10:24:05;;;;;;;1999.90;999.90;;;18.30;99.90;;;;;;5038634;28;20037;-83
2022/10/06 10:26:38;;;;;;;1999.90;999.90;;;18.70;99.90;;;;;;5038003;28;20485;-83
2022/10/06 10:29:16;;;;;;;1999.90;999.90;;;19.30;99.90;;;;;;5054978;28;20103;-83
2022/10/06 10:31:50;;;;;;;1999.90;999.90;;;19.70;99.90;;;;;;5071483;28;20044;-82
2022/10/06 10:34:32;;;;;;;1999.90;999.90;;;20.10;99.90;;;;;;5071685;28;20049;-82
2022/10/06 10:37:11;;;;;;;1999.90;999.90;;;20.00;99.90;;;;;;5071379;28;20053;-84
2022/10/06 10:39:49;;;;;;;1999.90;666.03;;;18.50;99.90;;;;;;5037369;28;20084;-83
2022/10/06 10:42:28;;;;;;;;;;;19.10;99.90;;;;;;5054810;28;20060;-83
2022/10/06 10:45:00;;;;;;;1999.90;999.90;;;18.20;99.90;;;;;;5071489;28;20332;-84
2022/10/06 10:47:35;;;;;;;1999.90;800.92;;;20.00;99.90;;;;;;5071483;28;20060;-83
2022/10/06 10:50:21;;;;;;;1999.90;814.92;;;19.80;99.90;;;;;;5021950;28;20493;-84
2022/10/06 10:52:50;;;;;;;901.45;805.90;;;21.10;99.90;;;;;;5038080;28;20098;-83
2022/10/06 10:55:30;;;;;;;1999.90;871.95;;;22.00;99.90;;;;;;5071345;28;20461;-83
2022/10/06 10:58:01;;;;;;;1677.88;884.70;;;21.90;99.90;;;;;;5070503;28;20053;-83
2022/10/06 11:00:32;;;;;;;1988.07;886.88;;;21.40;99.90;;;;;;5071483;28;20107;-83
2022/10/06 11:03:00;;;;;;;1868.35;963.85;;;20.50;99.90;;;;;;5021071;28;20444;-83
2022/10/06 11:05:53;;;;;;;1999.90;999.90;;;20.10;99.90;;;;;;5071268;28;20053;-84
2022/10/06 11:08:38;;;;;;;1999.90;999.90;;;20.10;99.90;;;;;;5053866;28;20397;-83
2022/10/06 11:11:18;;;;;;;1999.90;983.80;;;20.80;99.90;;;;;;5071030;28;20501;-82
2022/10/06 11:13:48;;;;;;;866.25;737.47;;;21.60;99.90;;;;;;5020136;28;20057;-83
2022/10/06 11:16:36;;;;;;;815.25;732.45;;;22.70;99.90;;;;;;5055023;28;20049;-84
2022/10/06 11:19:19;;;;;;;771.13;716.05;;;23.20;95.40;;;;;;5020613;28;20558;-83
2022/10/06 11:22:08;;;;;;;1872.70;737.63;;;22.90;90.50;;;;;;5070486;28;20087;-84
2022/10/06 11:25:00;;;;;;;675.92;628.60;;;22.00;89.30;;;;;;5037710;28;20155;-83
2022/10/06 11:27:53;;;;;;;1999.90;662.25;;;21.70;94.80;;;;;;5012458;28;20171;-82
2022/10/06 11:30:25;;;;;;;1272.53;666.97;;;20.30;96.20;;;;;;5012733;28;20132;-82
2022/10/06 11:33:32;;;;;;;968.15;686.47;;;19.80;98.90;;;;;;5037197;28;20041;-83
2022/10/06 11:35:59;;;;;;;1357.85;752.78;;;19.00;99.80;;;;;;5015791;28;20053;-82
2022/10/06 11:38:41;;;;;;;902.35;692.50;;;19.50;99.90;;;;;;5020568;28;20088;-83
2022/10/06 11:41:25;;;;;;;728.05;673.42;;;20.30;99.90;;;;;;5070730;28;20092;-83
2022/10/06 11:44:02;;;;;;;713.33;661.75;;;21.20;95.40;;;;;;5054763;28;20087;-83
2022/10/06 11:46:28;;;;;;;796.72;739.00;;;21.60;89.20;;;;;;5037267;28;20543;-83
2022/10/06 11:49:28;;;;;;;742.75;689.00;;;21.40;93.30;;;;;;5070143;28;20053;-83
2022/10/06 11:52:06;;;;;;;732.72;675.33;;;20.50;90.30;;;;;;5052807;28;20083;-82
2022/10/06 11:54:38;;;;;;;639.30;595.05;;;20.30;93.40;;;;;;5053356;28;20037;-83
2022/10/06 11:57:27;;;;;;;666.45;620.53;;;20.60;93.50;;;;;;5036462;28;20521;-82
2022/10/06 12:00:14;;;;;;;639.83;593.88;;;20.60;89.50;;;;;;5032904;28;20063;-83
2022/10/06 12:02:41;;;;;;;777.40;700.67;;;20.20;87.70;;;;;;5054637;28;20060;-82
2022/10/06 12:05:13;;;;;;;685.75;630.75;;;19.60;90.50;;;;;;5070205;28;20074;-83
2022/10/06 12:08:01;;;;;;;1320.22;626.53;;;19.50;93.70;;;;;;5070190;28;20539;-83
2022/10/06 12:10:31;;;;;;;797.70;735.33;;;19.20;90.60;;;;;;5053078;28;20041;-84
2022/10/06 12:13:22;;;;;;;863.55;788.17;;;19.00;91.60;;;;;;5069204;28;20053;-85
2022/10/06 12:16:14;;;;;;;1687.68;992.13;;;18.80;95.70;;;;;;5036181;28;20397;-83
2022/10/06 12:18:43;;;;;;;1999.90;999.90;;;18.70;96.00;;;;;;5052784;28;20083;-85
2022/10/06 12:21:23;;;;;;;1999.90;973.75;;;18.30;99.90;;;;;;5068923;28;20049;-83
2022/10/06 12:24:24;;;;;;;1999.90;804.08;;;18.10;96.90;;;;;;5052987;28;20045;-83
2022/10/06 12:26:53;;;;;;;1999.90;837.92;;;17.90;99.70;;;;;;5018844;28;20059;-84
2022/10/06 12:29:22;;;;;;;1999.90;999.90;;;17.80;99.90;;;;;;5069292;28;20440;-83
2022/10/06 12:31:59;;;;;;;1999.90;789.80;;;17.70;99.90;;;;;;5053964;28;20056;-87